createdAt,value
2019-02-27T00:02:53.758Z,3.10
2019-02-27T00:07:56.853Z,3.10
2019-02-27T00:13:00.512Z,3.00
2019-02-27T00:18:04.256Z,2.90
2019-02-27T00:23:07.941Z,2.90
2019-02-27T00:28:11.694Z,2.80
2019-02-27T00:33:15.364Z,2.80
2019-02-27T00:38:19.047Z,2.80
2019-02-27T00:43:22.717Z,2.80
2019-02-27T00:48:26.757Z,2.70
2019-02-27T00:53:30.547Z,2.60
2019-02-27T00:58:34.223Z,2.60
2019-02-27T01:03:37.916Z,2.50
2019-02-27T01:08:41.584Z,2.50
2019-02-27T01:13:45.253Z,2.50
2019-02-27T01:18:50.897Z,2.40
2019-02-27T01:23:54.326Z,2.40
2019-02-27T01:28:58.030Z,2.40
2019-02-27T01:34:01.703Z,2.40
2019-02-27T01:39:08.970Z,2.50
2019-02-27T01:44:13.635Z,2.50
2019-02-27T01:49:17.969Z,2.50
2019-02-27T01:54:21.658Z,2.40
2019-02-27T01:59:25.321Z,2.40
2019-02-27T02:04:29.021Z,2.40
2019-02-27T02:09:43.145Z,2.30
2019-02-27T02:15:12.792Z,2.20
2019-02-27T02:20:46.438Z,2.20
2019-02-27T02:26:34.757Z,2.10
2019-02-27T02:31:56.220Z,2.20
2019-02-27T02:37:18.482Z,2.20
2019-02-27T02:42:37.242Z,2.20
2019-02-27T02:48:06.389Z,2.30
2019-02-27T02:53:28.114Z,2.40
2019-02-27T02:59:08.502Z,2.40
2019-02-27T03:04:35.356Z,2.50
2019-02-27T03:10:07.157Z,2.50
2019-02-27T03:15:35.525Z,2.50
2019-02-27T03:20:52.383Z,2.60
2019-02-27T03:26:18.822Z,2.60
2019-02-27T03:32:01.059Z,2.70
2019-02-27T03:37:41.014Z,2.60
2019-02-27T03:43:10.214Z,2.60
2019-02-27T03:48:51.331Z,2.50
2019-02-27T03:54:48.743Z,2.50
2019-02-27T04:00:42.163Z,2.50
2019-02-27T04:06:29.265Z,2.40
2019-02-27T04:11:32.937Z,2.40
2019-02-27T04:16:38.112Z,2.40
2019-02-27T04:21:41.928Z,2.40
2019-02-27T04:26:45.596Z,2.30
2019-02-27T04:31:50.286Z,2.40
2019-02-27T04:36:53.950Z,2.40
2019-02-27T04:41:57.620Z,2.40
2019-02-27T04:47:01.260Z,2.40
2019-02-27T04:52:04.925Z,2.30
2019-02-27T04:57:08.889Z,2.30
2019-02-27T05:02:14.547Z,2.30
2019-02-27T05:07:20.375Z,2.30
2019-02-27T05:12:23.618Z,2.20
2019-02-27T05:17:27.286Z,2.20
2019-02-27T05:22:30.932Z,2.20
2019-02-27T05:27:34.601Z,2.20
2019-02-27T05:32:38.256Z,2.10
2019-02-27T05:37:41.919Z,2.10
2019-02-27T05:42:45.581Z,2.20
2019-02-27T05:47:49.246Z,2.10
2019-02-27T05:52:53.234Z,2.10
2019-02-27T05:57:56.982Z,2.10
2019-02-27T06:03:00.659Z,2.20
2019-02-27T06:08:04.401Z,2.20
2019-02-27T06:13:08.112Z,2.20
2019-02-27T06:18:11.792Z,2.20
2019-02-27T06:23:15.473Z,2.20
2019-02-27T06:28:19.430Z,2.20
2019-02-27T06:33:23.206Z,2.20
2019-02-27T06:38:27.076Z,2.20
2019-02-27T06:43:30.741Z,2.20
2019-02-27T06:48:34.433Z,2.20
2019-02-27T06:53:38.104Z,2.30
2019-02-27T06:58:42.110Z,2.20
2019-02-27T07:03:46.025Z,2.20
2019-02-27T07:08:49.706Z,2.20
2019-02-27T07:13:53.398Z,2.20
2019-02-27T07:18:57.061Z,2.20
2019-02-27T07:24:00.729Z,2.20
2019-02-27T07:29:04.409Z,2.20
2019-02-27T07:34:08.086Z,2.20
2019-02-27T07:39:11.865Z,2.20
2019-02-27T07:44:15.531Z,2.30
2019-02-27T07:49:19.192Z,2.40
2019-02-27T07:54:23.166Z,2.50
2019-02-27T07:59:26.829Z,2.60
2019-02-27T08:04:30.549Z,2.70
2019-02-27T08:09:34.201Z,2.80
2019-02-27T08:14:37.946Z,2.90
2019-02-27T08:19:42.887Z,3.00
2019-02-27T08:24:47.096Z,3.10
2019-02-27T08:29:50.783Z,3.20
2019-02-27T08:34:54.593Z,3.40
2019-02-27T08:39:58.269Z,3.50
2019-02-27T08:45:01.948Z,3.60
2019-02-27T08:50:08.080Z,3.70
2019-02-27T08:55:19.978Z,3.90
2019-02-27T09:00:20.341Z,4.00
2019-02-27T09:05:24.033Z,4.20
2019-02-27T09:10:30.414Z,4.40
2019-02-27T09:15:33.101Z,4.50
2019-02-27T09:20:36.787Z,4.70
2019-02-27T09:25:42.261Z,4.90
2019-02-27T09:30:46.185Z,5.10
2019-02-27T09:35:52.234Z,5.30
2019-02-27T09:40:55.922Z,5.40
2019-02-27T09:45:59.613Z,5.60
2019-02-27T09:51:03.309Z,5.90
2019-02-27T09:56:06.977Z,6.00
2019-02-27T10:01:16.118Z,6.30
2019-02-27T10:06:19.817Z,6.50
2019-02-27T10:11:23.509Z,6.80
2019-02-27T10:16:27.184Z,7.00
2019-02-27T10:21:31.166Z,7.20
2019-02-27T10:26:54.369Z,7.40
2019-02-27T10:31:58.320Z,7.50
2019-02-27T10:37:03.507Z,7.70
2019-02-27T10:42:07.306Z,7.90
2019-02-27T10:47:11.071Z,8.00
2019-02-27T10:52:14.765Z,8.10
2019-02-27T10:57:18.432Z,8.30
2019-02-27T11:02:23.528Z,8.40
2019-02-27T11:07:27.705Z,8.50
2019-02-27T11:12:31.457Z,8.70
2019-02-27T11:17:35.134Z,8.80
2019-02-27T11:22:39.194Z,8.90
2019-02-27T11:27:42.878Z,9.10
2019-02-27T11:32:46.557Z,9.20
2019-02-27T11:37:50.229Z,9.40
2019-02-27T11:42:53.905Z,9.50
2019-02-27T11:47:57.848Z,9.70
2019-02-27T11:53:02.712Z,9.80
2019-02-27T11:58:07.501Z,9.90
2019-02-27T12:03:11.999Z,10.00
2019-02-27T12:08:15.755Z,10.10
2019-02-27T12:13:19.510Z,10.20
2019-02-27T12:18:23.690Z,10.40
2019-02-27T12:23:29.761Z,10.50
2019-02-27T12:28:33.776Z,10.60
2019-02-27T12:33:38.758Z,10.70
2019-02-27T12:38:42.594Z,10.80
2019-02-27T12:43:46.357Z,10.90
2019-02-27T12:48:50.802Z,11.00
2019-02-27T12:53:55.179Z,11.10
2019-02-27T12:59:06.153Z,11.20
2019-02-27T13:04:09.849Z,11.30
2019-02-27T13:09:13.510Z,11.30
2019-02-27T13:14:17.225Z,11.40
2019-02-27T13:19:21.148Z,11.60
2019-02-27T13:24:24.835Z,11.60
2019-02-27T13:29:28.512Z,11.70
2019-02-27T13:34:32.181Z,11.80
2019-02-27T13:39:36.006Z,11.80
2019-02-27T13:44:39.660Z,11.90
2019-02-27T13:49:45.046Z,12.00
2019-02-27T13:59:51.932Z,12.10
2019-02-27T14:04:57.028Z,12.30
2019-02-27T14:10:00.965Z,12.40
2019-02-27T14:15:05.016Z,12.50
2019-02-27T14:20:11.791Z,12.50
2019-02-27T14:25:20.285Z,12.50
2019-02-27T14:30:26.568Z,12.60
2019-02-27T14:35:35.246Z,12.60
2019-02-27T14:40:40.028Z,12.60
2019-02-27T14:45:41.257Z,12.70
2019-02-27T14:50:45.242Z,12.70
2019-02-27T14:55:48.897Z,12.80
2019-02-27T15:00:52.538Z,12.90
2019-02-27T15:05:56.187Z,12.90
2019-02-27T15:10:59.823Z,13.00
2019-02-27T15:16:03.853Z,13.00
2019-02-27T15:21:07.582Z,13.00
2019-02-27T15:26:13.899Z,13.00
2019-02-27T15:31:18.064Z,13.00
2019-02-27T15:36:23.045Z,13.00
2019-02-27T15:41:26.868Z,13.00
2019-02-27T15:46:30.531Z,12.90
2019-02-27T15:51:34.343Z,12.90
2019-02-27T15:56:41.486Z,12.80
2019-02-27T16:01:43.422Z,12.80
2019-02-27T16:06:47.084Z,12.70
2019-02-27T16:11:52.416Z,12.60
2019-02-27T16:16:57.573Z,12.50
2019-02-27T16:22:01.768Z,12.40
2019-02-27T16:27:05.751Z,12.30
2019-02-27T16:32:13.065Z,12.30
2019-02-27T16:37:14.788Z,12.20
2019-02-27T16:42:18.447Z,12.10
2019-02-27T16:47:23.761Z,11.90
2019-02-27T16:52:27.817Z,11.80
2019-02-27T16:57:31.473Z,11.70
2019-02-27T17:02:35.489Z,11.60
2019-02-27T17:07:41.252Z,11.40
2019-02-27T17:12:45.668Z,11.30
2019-02-27T17:17:50.588Z,11.10
2019-02-27T17:22:54.988Z,11.00
2019-02-27T17:27:58.966Z,10.90
2019-02-27T17:33:04.042Z,10.70
2019-02-27T17:38:07.991Z,10.60
2019-02-27T17:43:11.652Z,10.40
2019-02-27T17:48:15.678Z,10.20
2019-02-27T17:53:22.940Z,10.10
2019-02-27T17:58:25.817Z,10.00
2019-02-27T18:03:29.477Z,9.80
2019-02-27T18:08:33.121Z,9.60
2019-02-27T18:13:36.780Z,9.50
2019-02-27T18:18:43.371Z,9.30
2019-02-27T18:23:47.943Z,9.20
2019-02-27T18:28:51.652Z,9.00
2019-02-27T18:33:55.305Z,8.90
2019-02-27T18:39:02.532Z,8.80
2019-02-27T18:44:08.076Z,8.70
2019-02-27T18:49:11.913Z,8.60
2019-02-27T18:54:15.552Z,8.50
2019-02-27T18:59:19.193Z,8.40
2019-02-27T19:04:22.946Z,8.30
2019-02-27T19:09:29.336Z,8.30
2019-02-27T19:14:32.109Z,8.20
2019-02-27T19:19:35.950Z,8.10
2019-02-27T19:24:39.670Z,8.00
2019-02-27T19:29:43.313Z,8.00
2019-02-27T19:34:47.984Z,7.90
2019-02-27T19:39:53.348Z,7.90
2019-02-27T19:44:57.242Z,7.80
2019-02-27T19:50:00.886Z,7.70
2019-02-27T19:55:04.694Z,7.60
2019-02-27T20:00:10.056Z,7.60
2019-02-27T20:05:16.498Z,7.50
2019-02-27T20:10:19.572Z,7.50
2019-02-27T20:15:23.575Z,7.40
2019-02-27T20:20:27.303Z,7.40
2019-02-27T20:25:32.830Z,7.40
2019-02-27T20:30:37.853Z,7.30
2019-02-27T20:35:41.838Z,7.30
2019-02-27T20:40:45.710Z,7.30
2019-02-27T20:45:49.561Z,7.20
2019-02-27T20:50:55.213Z,7.20
2019-02-27T20:55:59.212Z,7.20
2019-02-27T21:01:03.381Z,7.10
2019-02-27T21:06:07.374Z,7.10
2019-02-27T21:11:11.011Z,7.10
2019-02-27T21:16:14.665Z,7.00
2019-02-27T21:21:19.858Z,6.90
2019-02-27T21:26:23.759Z,6.90
2019-02-27T21:31:27.793Z,6.80
2019-02-27T21:36:36.451Z,6.70
2019-02-27T21:41:36.925Z,6.70
2019-02-27T21:46:46.222Z,6.60
2019-02-27T21:51:48.206Z,6.50
2019-02-27T21:56:51.813Z,6.50
2019-02-27T22:01:57.023Z,6.40
2019-02-27T22:07:00.852Z,6.40
2019-02-27T22:12:04.493Z,6.40
2019-02-27T22:17:08.167Z,6.30
2019-02-27T22:22:11.877Z,6.30
2019-02-27T22:27:15.534Z,6.30
2019-02-27T22:32:19.178Z,6.30
2019-02-27T22:37:22.901Z,6.30
2019-02-27T22:42:26.541Z,6.30
2019-02-27T22:47:30.382Z,6.30
2019-02-27T22:52:34.027Z,6.30
2019-02-27T22:57:37.748Z,6.30
2019-02-27T23:02:41.391Z,6.30
2019-02-27T23:07:45.037Z,6.40
2019-02-27T23:12:48.685Z,6.40
2019-02-27T23:17:52.333Z,6.40
2019-02-27T23:22:55.982Z,6.40
2019-02-27T23:28:01.048Z,6.40
2019-02-27T23:33:05.409Z,6.40
2019-02-27T23:38:09.052Z,6.50
2019-02-27T23:43:12.772Z,6.50
2019-02-27T23:48:16.412Z,6.50
2019-02-27T23:53:20.063Z,6.50
2019-02-27T23:58:23.709Z,6.50
